sensor_id;sensor_type;location;lat;lon;timestamp;temperature;humidity
13203;DHT22;6666;51.626;7.530;2024-03-07T00:01:31;5.10;99.90
13203;DHT22;6666;51.626;7.530;2024-03-07T00:04:00;5.20;99.90
13203;DHT22;6666;51.626;7.530;2024-03-07T00:06:29;5.20;99.90
13203;DHT22;6666;51.626;7.530;2024-03-07T00:08:57;5.10;99.90
13203;DHT22;6666;51.626;7.530;2024-03-07T00:11:25;5.10;99.90
13203;DHT22;6666;51.626;7.530;2024-03-07T00:13:55;5.00;99.90
13203;DHT22;6666;51.626;7.530;2024-03-07T00:16:23;5.00;99.90
13203;DHT22;6666;51.626;7.530;2024-03-07T00:18:51;5.00;99.90
13203;DHT22;6666;51.626;7.530;2024-03-07T00:21:20;5.00;99.90
13203;DHT22;6666;51.626;7.530;2024-03-07T00:23:49;4.90;99.90
13203;DHT22;6666;51.626;7.530;2024-03-07T00:26:17;4.90;99.90
13203;DHT22;6666;51.626;7.530;2024-03-07T00:28:45;4.90;99.90
13203;DHT22;6666;51.626;7.530;2024-03-07T00:31:13;5.00;99.90
13203;DHT22;6666;51.626;7.530;2024-03-07T00:33:41;5.00;99.90
13203;DHT22;6666;51.626;7.530;2024-03-07T00:36:31;5.10;99.90
13203;DHT22;6666;51.626;7.530;2024-03-07T00:39:00;5.10;99.90
13203;DHT22;6666;51.626;7.530;2024-03-07T00:41:28;5.20;99.90
13203;DHT22;6666;51.626;7.530;2024-03-07T00:43:57;5.20;99.90
13203;DHT22;6666;51.626;7.530;2024-03-07T00:46:25;5.20;99.90
13203;DHT22;6666;51.626;7.530;2024-03-07T00:48:53;5.10;99.90
13203;DHT22;6666;51.626;7.530;2024-03-07T00:51:21;5.10;99.90
13203;DHT22;6666;51.626;7.530;2024-03-07T00:53:51;5.20;99.90
13203;DHT22;6666;51.626;7.530;2024-03-07T00:56:19;5.10;99.90
13203;DHT22;6666;51.626;7.530;2024-03-07T00:58:48;5.10;99.90
13203;DHT22;6666;51.626;7.530;2024-03-07T01:01:16;5.10;99.90
13203;DHT22;6666;51.626;7.530;2024-03-07T01:03:45;4.90;99.90
13203;DHT22;6666;51.626;7.530;2024-03-07T01:06:13;4.90;99.90
13203;DHT22;6666;51.626;7.530;2024-03-07T01:08:41;4.80;99.90
13203;DHT22;6666;51.626;7.530;2024-03-07T01:11:11;4.80;99.90
13203;DHT22;6666;51.626;7.530;2024-03-07T01:13:39;4.90;99.90
13203;DHT22;6666;51.626;7.530;2024-03-07T01:16:08;4.80;99.90
13203;DHT22;6666;51.626;7.530;2024-03-07T01:18:37;4.80;99.90
13203;DHT22;6666;51.626;7.530;2024-03-07T01:21:06;4.80;99.90
13203;DHT22;6666;51.626;7.530;2024-03-07T01:23:35;4.70;99.90
13203;DHT22;6666;51.626;7.530;2024-03-07T01:26:03;4.80;99.90
13203;DHT22;6666;51.626;7.530;2024-03-07T01:28:32;4.90;99.90
13203;DHT22;6666;51.626;7.530;2024-03-07T01:31:02;4.90;99.90
13203;DHT22;6666;51.626;7.530;2024-03-07T01:33:30;5.00;99.90
13203;DHT22;6666;51.626;7.530;2024-03-07T01:35:59;5.00;99.90
13203;DHT22;6666;51.626;7.530;2024-03-07T01:38:30;5.00;99.90
13203;DHT22;6666;51.626;7.530;2024-03-07T01:40:58;5.00;99.90
13203;DHT22;6666;51.626;7.530;2024-03-07T01:43:27;5.00;99.90
13203;DHT22;6666;51.626;7.530;2024-03-07T01:46:00;4.90;99.90
13203;DHT22;6666;51.626;7.530;2024-03-07T01:48:31;4.90;99.90
13203;DHT22;6666;51.626;7.530;2024-03-07T01:51:00;4.90;99.90
13203;DHT22;6666;51.626;7.530;2024-03-07T01:53:33;4.90;99.90
13203;DHT22;6666;51.626;7.530;2024-03-07T01:56:03;4.80;99.90
13203;DHT22;6666;51.626;7.530;2024-03-07T01:58:32;4.80;99.90
13203;DHT22;6666;51.626;7.530;2024-03-07T02:01:03;4.60;99.90
13203;DHT22;6666;51.626;7.530;2024-03-07T02:03:32;4.60;99.90
13203;DHT22;6666;51.626;7.530;2024-03-07T02:06:04;4.60;99.90
13203;DHT22;6666;51.626;7.530;2024-03-07T02:08:32;4.60;99.90
13203;DHT22;6666;51.626;7.530;2024-03-07T02:11:01;4.70;99.90
13203;DHT22;6666;51.626;7.530;2024-03-07T02:13:29;4.70;99.90
13203;DHT22;6666;51.626;7.530;2024-03-07T02:15:58;4.60;99.90
13203;DHT22;6666;51.626;7.530;2024-03-07T02:18:28;4.60;99.90
13203;DHT22;6666;51.626;7.530;2024-03-07T02:20:59;4.60;99.90
13203;DHT22;6666;51.626;7.530;2024-03-07T02:23:27;4.60;99.90
13203;DHT22;6666;51.626;7.530;2024-03-07T02:25:55;4.70;99.90
13203;DHT22;6666;51.626;7.530;2024-03-07T02:28:23;4.60;99.90
13203;DHT22;6666;51.626;7.530;2024-03-07T02:30:51;4.50;99.90
13203;DHT22;6666;51.626;7.530;2024-03-07T02:33:19;4.50;99.90
13203;DHT22;6666;51.626;7.530;2024-03-07T02:35:48;4.50;99.90
13203;DHT22;6666;51.626;7.530;2024-03-07T02:38:18;4.30;99.90
13203;DHT22;6666;51.626;7.530;2024-03-07T02:40:46;4.20;99.90
13203;DHT22;6666;51.626;7.530;2024-03-07T02:43:14;4.00;99.90
13203;DHT22;6666;51.626;7.530;2024-03-07T02:45:42;3.90;99.90
13203;DHT22;6666;51.626;7.530;2024-03-07T02:48:10;3.80;99.90
13203;DHT22;6666;51.626;7.530;2024-03-07T02:50:39;4.00;99.90
13203;DHT22;6666;51.626;7.530;2024-03-07T02:53:10;4.10;99.90
13203;DHT22;6666;51.626;7.530;2024-03-07T02:55:40;4.00;99.90
13203;DHT22;6666;51.626;7.530;2024-03-07T02:58:08;3.80;99.90
13203;DHT22;6666;51.626;7.530;2024-03-07T03:00:37;3.70;99.90
13203;DHT22;6666;51.626;7.530;2024-03-07T03:03:05;3.70;99.90
13203;DHT22;6666;51.626;7.530;2024-03-07T03:05:33;3.60;99.90
13203;DHT22;6666;51.626;7.530;2024-03-07T03:08:01;3.50;99.90
13203;DHT22;6666;51.626;7.530;2024-03-07T03:10:34;3.40;99.90
13203;DHT22;6666;51.626;7.530;2024-03-07T03:13:04;3.40;99.90
13203;DHT22;6666;51.626;7.530;2024-03-07T03:15:33;3.40;99.90
13203;DHT22;6666;51.626;7.530;2024-03-07T03:18:02;3.30;99.90
13203;DHT22;6666;51.626;7.530;2024-03-07T03:20:31;3.20;99.90
13203;DHT22;6666;51.626;7.530;2024-03-07T03:23:03;3.20;99.90
13203;DHT22;6666;51.626;7.530;2024-03-07T03:25:46;3.20;99.90
13203;DHT22;6666;51.626;7.530;2024-03-07T03:28:18;3.10;99.90
13203;DHT22;6666;51.626;7.530;2024-03-07T03:30:49;3.10;99.90
13203;DHT22;6666;51.626;7.530;2024-03-07T03:33:17;3.10;99.90
13203;DHT22;6666;51.626;7.530;2024-03-07T03:35:46;3.10;99.90
13203;DHT22;6666;51.626;7.530;2024-03-07T03:38:14;3.20;99.90
13203;DHT22;6666;51.626;7.530;2024-03-07T03:40:43;3.20;99.90
13203;DHT22;6666;51.626;7.530;2024-03-07T03:43:11;3.10;99.90
13203;DHT22;6666;51.626;7.530;2024-03-07T03:45:41;3.10;99.90
13203;DHT22;6666;51.626;7.530;2024-03-07T03:48:09;3.10;99.90
13203;DHT22;6666;51.626;7.530;2024-03-07T03:50:37;3.20;99.90
13203;DHT22;6666;51.626;7.530;2024-03-07T03:53:06;3.40;99.90
13203;DHT22;6666;51.626;7.530;2024-03-07T03:55:34;3.50;99.90
13203;DHT22;6666;51.626;7.530;2024-03-07T03:58:03;3.40;99.90
13203;DHT22;6666;51.626;7.530;2024-03-07T04:00:32;3.50;99.90
13203;DHT22;6666;51.626;7.530;2024-03-07T04:03:02;3.60;99.90
13203;DHT22;6666;51.626;7.530;2024-03-07T04:05:31;3.60;99.90
13203;DHT22;6666;51.626;7.530;2024-03-07T04:07:59;3.60;99.90
13203;DHT22;6666;51.626;7.530;2024-03-07T04:10:27;3.50;99.90
13203;DHT22;6666;51.626;7.530;2024-03-07T04:12:55;3.50;99.90
13203;DHT22;6666;51.626;7.530;2024-03-07T04:15:24;3.50;99.90
13203;DHT22;6666;51.626;7.530;2024-03-07T04:17:53;3.50;99.90
13203;DHT22;6666;51.626;7.530;2024-03-07T04:20:24;3.50;99.90
13203;DHT22;6666;51.626;7.530;2024-03-07T04:22:52;3.40;99.90
13203;DHT22;6666;51.626;7.530;2024-03-07T04:25:20;3.50;99.90
13203;DHT22;6666;51.626;7.530;2024-03-07T04:27:48;3.40;99.90
13203;DHT22;6666;51.626;7.530;2024-03-07T04:30:17;3.40;99.90
13203;DHT22;6666;51.626;7.530;2024-03-07T04:32:47;3.40;99.90
13203;DHT22;6666;51.626;7.530;2024-03-07T04:35:15;3.40;99.90
13203;DHT22;6666;51.626;7.530;2024-03-07T04:37:47;3.30;99.90
13203;DHT22;6666;51.626;7.530;2024-03-07T04:40:15;3.30;99.90
13203;DHT22;6666;51.626;7.530;2024-03-07T04:42:46;3.40;99.90
13203;DHT22;6666;51.626;7.530;2024-03-07T04:45:15;3.30;99.90
13203;DHT22;6666;51.626;7.530;2024-03-07T04:47:44;3.20;99.90
13203;DHT22;6666;51.626;7.530;2024-03-07T04:50:14;3.30;99.90
13203;DHT22;6666;51.626;7.530;2024-03-07T04:52:47;3.20;99.90
13203;DHT22;6666;51.626;7.530;2024-03-07T04:55:16;3.20;99.90
13203;DHT22;6666;51.626;7.530;2024-03-07T04:57:45;3.30;99.90
13203;DHT22;6666;51.626;7.530;2024-03-07T05:00:15;3.30;99.90
13203;DHT22;6666;51.626;7.530;2024-03-07T05:02:48;3.30;99.90
13203;DHT22;6666;51.626;7.530;2024-03-07T05:05:18;3.30;99.90
13203;DHT22;6666;51.626;7.530;2024-03-07T05:07:51;3.30;99.90
13203;DHT22;6666;51.626;7.530;2024-03-07T05:10:20;3.20;99.90
13203;DHT22;6666;51.626;7.530;2024-03-07T05:12:48;3.20;99.90
13203;DHT22;6666;51.626;7.530;2024-03-07T05:15:17;3.10;99.90
13203;DHT22;6666;51.626;7.530;2024-03-07T05:17:45;3.00;99.90
13203;DHT22;6666;51.626;7.530;2024-03-07T05:20:13;3.10;99.90
13203;DHT22;6666;51.626;7.530;2024-03-07T05:22:42;3.00;99.90
13203;DHT22;6666;51.626;7.530;2024-03-07T05:25:15;3.00;99.90
13203;DHT22;6666;51.626;7.530;2024-03-07T05:27:45;3.00;99.90
13203;DHT22;6666;51.626;7.530;2024-03-07T05:30:13;3.00;99.90
13203;DHT22;6666;51.626;7.530;2024-03-07T05:32:43;3.00;99.90
13203;DHT22;6666;51.626;7.530;2024-03-07T05:35:11;2.90;99.90
13203;DHT22;6666;51.626;7.530;2024-03-07T05:37:39;2.90;99.90
13203;DHT22;6666;51.626;7.530;2024-03-07T05:40:15;2.90;99.90
13203;DHT22;6666;51.626;7.530;2024-03-07T05:42:43;2.90;99.90
13203;DHT22;6666;51.626;7.530;2024-03-07T05:45:11;2.80;99.90
13203;DHT22;6666;51.626;7.530;2024-03-07T05:47:41;2.80;99.90
13203;DHT22;6666;51.626;7.530;2024-03-07T05:50:10;2.80;99.90
13203;DHT22;6666;51.626;7.530;2024-03-07T05:52:40;2.80;99.90
13203;DHT22;6666;51.626;7.530;2024-03-07T05:55:08;2.80;99.90
13203;DHT22;6666;51.626;7.530;2024-03-07T05:57:39;2.80;99.90
13203;DHT22;6666;51.626;7.530;2024-03-07T06:00:11;2.80;99.90
13203;DHT22;6666;51.626;7.530;2024-03-07T06:02:42;2.90;99.90
13203;DHT22;6666;51.626;7.530;2024-03-07T06:05:10;2.80;99.90
13203;DHT22;6666;51.626;7.530;2024-03-07T06:07:43;2.80;99.90
13203;DHT22;6666;51.626;7.530;2024-03-07T06:10:14;2.70;99.90
13203;DHT22;6666;51.626;7.530;2024-03-07T06:12:45;2.70;99.90
13203;DHT22;6666;51.626;7.530;2024-03-07T06:15:16;2.70;99.90
13203;DHT22;6666;51.626;7.530;2024-03-07T06:17:44;2.70;99.90
13203;DHT22;6666;51.626;7.530;2024-03-07T06:20:14;2.60;99.90
13203;DHT22;6666;51.626;7.530;2024-03-07T06:22:50;2.70;99.90
13203;DHT22;6666;51.626;7.530;2024-03-07T06:25:18;2.70;99.90
13203;DHT22;6666;51.626;7.530;2024-03-07T06:27:51;2.80;99.90
13203;DHT22;6666;51.626;7.530;2024-03-07T06:30:19;2.70;99.90
13203;DHT22;6666;51.626;7.530;2024-03-07T06:32:47;2.70;99.90
13203;DHT22;6666;51.626;7.530;2024-03-07T06:35:16;2.70;99.90
13203;DHT22;6666;51.626;7.530;2024-03-07T06:37:46;2.70;99.90
13203;DHT22;6666;51.626;7.530;2024-03-07T06:40:14;2.80;99.90
13203;DHT22;6666;51.626;7.530;2024-03-07T06:42:48;2.80;99.90
13203;DHT22;6666;51.626;7.530;2024-03-07T06:45:17;2.80;99.90
13203;DHT22;6666;51.626;7.530;2024-03-07T06:47:45;2.80;99.90
13203;DHT22;6666;51.626;7.530;2024-03-07T06:50:14;2.90;99.90
13203;DHT22;6666;51.626;7.530;2024-03-07T06:52:58;2.90;99.90
13203;DHT22;6666;51.626;7.530;2024-03-07T06:55:30;2.90;99.90
13203;DHT22;6666;51.626;7.530;2024-03-07T06:58:00;2.90;99.90
13203;DHT22;6666;51.626;7.530;2024-03-07T07:00:33;2.80;99.90
13203;DHT22;6666;51.626;7.530;2024-03-07T07:03:04;2.90;99.90
13203;DHT22;6666;51.626;7.530;2024-03-07T07:05:34;3.00;99.90
13203;DHT22;6666;51.626;7.530;2024-03-07T07:08:03;3.00;99.90
13203;DHT22;6666;51.626;7.530;2024-03-07T07:10:32;3.00;99.90
13203;DHT22;6666;51.626;7.530;2024-03-07T07:13:01;3.00;99.90
13203;DHT22;6666;51.626;7.530;2024-03-07T07:15:32;3.20;99.90
13203;DHT22;6666;51.626;7.530;2024-03-07T07:18:10;3.20;99.90
13203;DHT22;6666;51.626;7.530;2024-03-07T07:20:40;3.30;99.90
13203;DHT22;6666;51.626;7.530;2024-03-07T07:23:08;3.40;99.90
13203;DHT22;6666;51.626;7.530;2024-03-07T07:25:37;3.40;99.90
13203;DHT22;6666;51.626;7.530;2024-03-07T07:28:06;3.40;99.90
13203;DHT22;6666;51.626;7.530;2024-03-07T07:30:36;3.50;99.90
13203;DHT22;6666;51.626;7.530;2024-03-07T07:33:04;3.60;99.90
13203;DHT22;6666;51.626;7.530;2024-03-07T07:35:33;3.60;99.90
13203;DHT22;6666;51.626;7.530;2024-03-07T07:38:01;3.70;99.90
13203;DHT22;6666;51.626;7.530;2024-03-07T07:40:30;3.70;99.90
13203;DHT22;6666;51.626;7.530;2024-03-07T07:42:59;3.60;99.90
13203;DHT22;6666;51.626;7.530;2024-03-07T07:45:30;3.60;99.90
13203;DHT22;6666;51.626;7.530;2024-03-07T07:48:00;3.70;99.90
13203;DHT22;6666;51.626;7.530;2024-03-07T07:50:29;3.70;99.90
13203;DHT22;6666;51.626;7.530;2024-03-07T07:52:59;3.80;99.90
13203;DHT22;6666;51.626;7.530;2024-03-07T07:55:28;3.80;99.90
13203;DHT22;6666;51.626;7.530;2024-03-07T07:57:57;3.80;99.90
13203;DHT22;6666;51.626;7.530;2024-03-07T08:00:27;3.90;99.90
13203;DHT22;6666;51.626;7.530;2024-03-07T08:02:58;3.80;99.90
13203;DHT22;6666;51.626;7.530;2024-03-07T08:05:30;3.90;99.90
13203;DHT22;6666;51.626;7.530;2024-03-07T08:08:00;3.80;99.90
13203;DHT22;6666;51.626;7.530;2024-03-07T08:10:30;4.00;99.90
13203;DHT22;6666;51.626;7.530;2024-03-07T08:12:59;4.10;99.90
13203;DHT22;6666;51.626;7.530;2024-03-07T08:15:29;4.20;99.90
13203;DHT22;6666;51.626;7.530;2024-03-07T08:17:58;4.10;99.90
13203;DHT22;6666;51.626;7.530;2024-03-07T08:20:28;4.10;99.90
13203;DHT22;6666;51.626;7.530;2024-03-07T08:22:57;4.10;99.90
13203;DHT22;6666;51.626;7.530;2024-03-07T08:25:28;4.10;99.90
13203;DHT22;6666;51.626;7.530;2024-03-07T08:27:57;4.20;99.90
13203;DHT22;6666;51.626;7.530;2024-03-07T08:30:26;4.20;99.90
13203;DHT22;6666;51.626;7.530;2024-03-07T08:32:56;4.20;99.90
13203;DHT22;6666;51.626;7.530;2024-03-07T08:35:27;4.30;99.90
13203;DHT22;6666;51.626;7.530;2024-03-07T08:37:56;4.40;99.90
13203;DHT22;6666;51.626;7.530;2024-03-07T08:40:26;4.30;99.90
13203;DHT22;6666;51.626;7.530;2024-03-07T08:42:56;4.50;99.90
13203;DHT22;6666;51.626;7.530;2024-03-07T08:45:25;4.60;99.90
13203;DHT22;6666;51.626;7.530;2024-03-07T08:47:55;4.50;99.90
13203;DHT22;6666;51.626;7.530;2024-03-07T08:50:27;4.60;99.90
13203;DHT22;6666;51.626;7.530;2024-03-07T08:52:56;4.70;99.90
13203;DHT22;6666;51.626;7.530;2024-03-07T08:55:25;4.70;99.90
13203;DHT22;6666;51.626;7.530;2024-03-07T08:57:53;4.80;99.90
13203;DHT22;6666;51.626;7.530;2024-03-07T09:00:22;4.90;99.90
13203;DHT22;6666;51.626;7.530;2024-03-07T09:02:54;5.20;99.90
13203;DHT22;6666;51.626;7.530;2024-03-07T09:05:27;5.30;99.90
13203;DHT22;6666;51.626;7.530;2024-03-07T09:07:56;5.30;99.90
13203;DHT22;6666;51.626;7.530;2024-03-07T09:10:25;5.20;99.90
13203;DHT22;6666;51.626;7.530;2024-03-07T09:12:56;5.40;99.90
13203;DHT22;6666;51.626;7.530;2024-03-07T09:15:25;5.20;99.90
13203;DHT22;6666;51.626;7.530;2024-03-07T09:17:54;5.20;99.90
13203;DHT22;6666;51.626;7.530;2024-03-07T09:20:31;5.30;99.90
13203;DHT22;6666;51.626;7.530;2024-03-07T09:22:59;5.50;99.90
13203;DHT22;6666;51.626;7.530;2024-03-07T09:25:28;5.50;99.90
13203;DHT22;6666;51.626;7.530;2024-03-07T09:27:59;5.40;99.90
13203;DHT22;6666;51.626;7.530;2024-03-07T09:30:28;5.60;99.90
13203;DHT22;6666;51.626;7.530;2024-03-07T09:32:57;5.80;99.90
13203;DHT22;6666;51.626;7.530;2024-03-07T09:35:25;5.80;99.90
13203;DHT22;6666;51.626;7.530;2024-03-07T09:37:55;5.90;99.90
13203;DHT22;6666;51.626;7.530;2024-03-07T09:40:24;5.80;99.90
13203;DHT22;6666;51.626;7.530;2024-03-07T09:42:56;5.80;99.90
13203;DHT22;6666;51.626;7.530;2024-03-07T09:45:29;5.90;99.90
13203;DHT22;6666;51.626;7.530;2024-03-07T09:47:59;5.90;99.90
13203;DHT22;6666;51.626;7.530;2024-03-07T09:50:29;6.00;99.90
13203;DHT22;6666;51.626;7.530;2024-03-07T09:53:00;6.20;99.90
13203;DHT22;6666;51.626;7.530;2024-03-07T09:55:31;6.30;99.90
13203;DHT22;6666;51.626;7.530;2024-03-07T09:58:00;6.50;99.90
13203;DHT22;6666;51.626;7.530;2024-03-07T10:00:31;6.80;99.90
13203;DHT22;6666;51.626;7.530;2024-03-07T10:03:05;6.90;99.90
13203;DHT22;6666;51.626;7.530;2024-03-07T10:05:33;6.60;99.90
13203;DHT22;6666;51.626;7.530;2024-03-07T10:08:04;6.60;99.90
13203;DHT22;6666;51.626;7.530;2024-03-07T10:10:33;6.50;99.90
13203;DHT22;6666;51.626;7.530;2024-03-07T10:13:01;6.40;99.90
13203;DHT22;6666;51.626;7.530;2024-03-07T10:15:30;6.60;99.90
13203;DHT22;6666;51.626;7.530;2024-03-07T10:17:59;6.70;99.90
13203;DHT22;6666;51.626;7.530;2024-03-07T10:20:29;6.70;99.90
13203;DHT22;6666;51.626;7.530;2024-03-07T10:22:57;7.00;99.90
13203;DHT22;6666;51.626;7.530;2024-03-07T10:25:27;6.90;99.90
13203;DHT22;6666;51.626;7.530;2024-03-07T10:27:56;7.00;99.90
13203;DHT22;6666;51.626;7.530;2024-03-07T10:30:27;6.90;99.90
13203;DHT22;6666;51.626;7.530;2024-03-07T10:32:56;7.10;99.90
13203;DHT22;6666;51.626;7.530;2024-03-07T10:35:27;6.90;99.90
13203;DHT22;6666;51.626;7.530;2024-03-07T10:37:58;7.00;99.90
13203;DHT22;6666;51.626;7.530;2024-03-07T10:40:30;7.10;99.90
13203;DHT22;6666;51.626;7.530;2024-03-07T10:42:59;7.20;99.90
13203;DHT22;6666;51.626;7.530;2024-03-07T10:45:30;7.40;99.90
13203;DHT22;6666;51.626;7.530;2024-03-07T10:48:03;7.50;99.90
13203;DHT22;6666;51.626;7.530;2024-03-07T10:50:43;7.40;99.90
13203;DHT22;6666;51.626;7.530;2024-03-07T10:53:20;7.40;99.90
13203;DHT22;6666;51.626;7.530;2024-03-07T10:56:03;7.30;99.90
13203;DHT22;6666;51.626;7.530;2024-03-07T10:58:37;7.50;99.90
13203;DHT22;6666;51.626;7.530;2024-03-07T11:01:11;7.60;99.90
13203;DHT22;6666;51.626;7.530;2024-03-07T11:03:44;7.60;99.90
13203;DHT22;6666;51.626;7.530;2024-03-07T11:06:13;7.60;99.90
13203;DHT22;6666;51.626;7.530;2024-03-07T11:08:42;7.60;99.90
13203;DHT22;6666;51.626;7.530;2024-03-07T11:11:14;7.70;99.90
13203;DHT22;6666;51.626;7.530;2024-03-07T11:13:43;7.70;99.90
13203;DHT22;6666;51.626;7.530;2024-03-07T11:16:13;7.70;99.90
13203;DHT22;6666;51.626;7.530;2024-03-07T11:18:41;7.60;99.90
13203;DHT22;6666;51.626;7.530;2024-03-07T11:24:25;7.60;99.90
13203;DHT22;6666;51.626;7.530;2024-03-07T11:26:57;7.80;99.90
13203;DHT22;6666;51.626;7.530;2024-03-07T11:29:42;7.90;99.90
13203;DHT22;6666;51.626;7.530;2024-03-07T11:32:11;8.00;99.90
13203;DHT22;6666;51.626;7.530;2024-03-07T11:34:41;8.00;99.90
13203;DHT22;6666;51.626;7.530;2024-03-07T11:37:17;7.90;99.90
13203;DHT22;6666;51.626;7.530;2024-03-07T11:39:50;8.00;99.90
13203;DHT22;6666;51.626;7.530;2024-03-07T11:42:26;7.80;99.90
13203;DHT22;6666;51.626;7.530;2024-03-07T11:44:55;7.90;99.90
13203;DHT22;6666;51.626;7.530;2024-03-07T11:47:25;7.80;99.90
13203;DHT22;6666;51.626;7.530;2024-03-07T11:49:56;7.90;99.90
13203;DHT22;6666;51.626;7.530;2024-03-07T11:52:25;8.20;99.90
13203;DHT22;6666;51.626;7.530;2024-03-07T11:54:54;8.60;99.90
13203;DHT22;6666;51.626;7.530;2024-03-07T11:57:32;8.60;99.90
13203;DHT22;6666;51.626;7.530;2024-03-07T12:00:03;8.50;99.90
13203;DHT22;6666;51.626;7.530;2024-03-07T12:02:38;8.50;99.90
13203;DHT22;6666;51.626;7.530;2024-03-07T12:05:08;8.30;99.90
13203;DHT22;6666;51.626;7.530;2024-03-07T12:07:36;8.30;99.90
13203;DHT22;6666;51.626;7.530;2024-03-07T12:10:05;8.50;99.90
13203;DHT22;6666;51.626;7.530;2024-03-07T12:12:35;8.60;99.90
13203;DHT22;6666;51.626;7.530;2024-03-07T12:15:07;8.50;99.90
13203;DHT22;6666;51.626;7.530;2024-03-07T12:17:46;8.40;99.90
13203;DHT22;6666;51.626;7.530;2024-03-07T12:20:17;8.60;99.90
13203;DHT22;6666;51.626;7.530;2024-03-07T12:22:59;8.80;99.90
13203;DHT22;6666;51.626;7.530;2024-03-07T12:25:30;8.70;99.90
13203;DHT22;6666;51.626;7.530;2024-03-07T12:28:03;8.70;99.90
13203;DHT22;6666;51.626;7.530;2024-03-07T12:30:34;8.60;99.90
13203;DHT22;6666;51.626;7.530;2024-03-07T12:33:04;8.60;99.90
13203;DHT22;6666;51.626;7.530;2024-03-07T12:35:34;8.70;99.90
13203;DHT22;6666;51.626;7.530;2024-03-07T12:38:03;8.80;99.90
13203;DHT22;6666;51.626;7.530;2024-03-07T12:40:31;8.90;99.90
13203;DHT22;6666;51.626;7.530;2024-03-07T12:43:12;8.90;99.90
13203;DHT22;6666;51.626;7.530;2024-03-07T12:45:44;9.00;99.90
13203;DHT22;6666;51.626;7.530;2024-03-07T12:48:12;9.10;99.90
13203;DHT22;6666;51.626;7.530;2024-03-07T12:50:41;9.20;99.90
13203;DHT22;6666;51.626;7.530;2024-03-07T12:53:10;9.20;99.90
13203;DHT22;6666;51.626;7.530;2024-03-07T12:55:39;9.40;99.90
13203;DHT22;6666;51.626;7.530;2024-03-07T12:58:10;9.40;99.90
13203;DHT22;6666;51.626;7.530;2024-03-07T13:00:39;9.40;99.90
13203;DHT22;6666;51.626;7.530;2024-03-07T13:03:08;9.50;99.90
13203;DHT22;6666;51.626;7.530;2024-03-07T13:05:36;9.60;99.90
13203;DHT22;6666;51.626;7.530;2024-03-07T13:08:07;9.60;99.90
13203;DHT22;6666;51.626;7.530;2024-03-07T13:10:39;9.50;99.90
13203;DHT22;6666;51.626;7.530;2024-03-07T13:13:07;9.50;99.90
13203;DHT22;6666;51.626;7.530;2024-03-07T13:15:37;9.60;99.90
13203;DHT22;6666;51.626;7.530;2024-03-07T13:18:07;9.80;99.90
13203;DHT22;6666;51.626;7.530;2024-03-07T13:20:36;9.80;99.90
13203;DHT22;6666;51.626;7.530;2024-03-07T13:23:04;9.80;99.90
13203;DHT22;6666;51.626;7.530;2024-03-07T13:25:33;9.70;99.90
13203;DHT22;6666;51.626;7.530;2024-03-07T13:28:03;9.70;99.90
13203;DHT22;6666;51.626;7.530;2024-03-07T13:30:34;9.60;99.90
13203;DHT22;6666;51.626;7.530;2024-03-07T13:33:04;9.40;99.90
13203;DHT22;6666;51.626;7.530;2024-03-07T13:35:33;9.20;99.90
13203;DHT22;6666;51.626;7.530;2024-03-07T13:38:03;9.00;99.90
13203;DHT22;6666;51.626;7.530;2024-03-07T13:40:31;8.70;99.90
13203;DHT22;6666;51.626;7.530;2024-03-07T13:43:01;8.60;99.90
13203;DHT22;6666;51.626;7.530;2024-03-07T13:45:31;8.50;99.90
13203;DHT22;6666;51.626;7.530;2024-03-07T13:48:08;8.50;99.90
13203;DHT22;6666;51.626;7.530;2024-03-07T13:50:37;8.60;99.90
13203;DHT22;6666;51.626;7.530;2024-03-07T13:53:23;8.60;99.90
13203;DHT22;6666;51.626;7.530;2024-03-07T13:56:28;8.60;99.90
13203;DHT22;6666;51.626;7.530;2024-03-07T13:59:40;8.70;99.90
13203;DHT22;6666;51.626;7.530;2024-03-07T14:02:37;8.70;99.90
13203;DHT22;6666;51.626;7.530;2024-03-07T14:08:37;8.80;99.90
13203;DHT22;6666;51.626;7.530;2024-03-07T14:11:41;8.90;99.90
13203;DHT22;6666;51.626;7.530;2024-03-07T14:14:32;8.90;99.90
13203;DHT22;6666;51.626;7.530;2024-03-07T14:17:32;8.90;99.90
13203;DHT22;6666;51.626;7.530;2024-03-07T14:20:45;9.00;99.90
13203;DHT22;6666;51.626;7.530;2024-03-07T14:23:39;8.90;99.90
13203;DHT22;6666;51.626;7.530;2024-03-07T14:26:49;9.00;99.90
13203;DHT22;6666;51.626;7.530;2024-03-07T14:29:29;9.00;99.90
13203;DHT22;6666;51.626;7.530;2024-03-07T14:36:13;8.90;99.90
13203;DHT22;6666;51.626;7.530;2024-03-07T14:38:49;8.70;99.90
13203;DHT22;6666;51.626;7.530;2024-03-07T14:41:20;8.80;99.90
13203;DHT22;6666;51.626;7.530;2024-03-07T14:43:52;8.90;99.90
13203;DHT22;6666;51.626;7.530;2024-03-07T14:46:21;8.90;99.90
13203;DHT22;6666;51.626;7.530;2024-03-07T14:48:50;8.90;99.90
13203;DHT22;6666;51.626;7.530;2024-03-07T14:51:19;8.90;99.90
13203;DHT22;6666;51.626;7.530;2024-03-07T14:53:49;8.90;99.90
13203;DHT22;6666;51.626;7.530;2024-03-07T14:56:17;8.90;99.90
13203;DHT22;6666;51.626;7.530;2024-03-07T14:58:46;8.90;99.90
13203;DHT22;6666;51.626;7.530;2024-03-07T15:01:14;8.90;99.90
13203;DHT22;6666;51.626;7.530;2024-03-07T15:03:43;8.80;99.90
13203;DHT22;6666;51.626;7.530;2024-03-07T15:06:12;8.80;99.90
13203;DHT22;6666;51.626;7.530;2024-03-07T15:08:42;8.90;99.90
13203;DHT22;6666;51.626;7.530;2024-03-07T15:11:16;8.90;99.90
13203;DHT22;6666;51.626;7.530;2024-03-07T15:13:47;8.90;99.90
13203;DHT22;6666;51.626;7.530;2024-03-07T15:16:15;8.90;99.90
13203;DHT22;6666;51.626;7.530;2024-03-07T15:18:59;8.80;99.90
13203;DHT22;6666;51.626;7.530;2024-03-07T15:21:28;8.80;99.90
13203;DHT22;6666;51.626;7.530;2024-03-07T15:23:57;8.70;99.90
13203;DHT22;6666;51.626;7.530;2024-03-07T15:26:27;8.60;99.90
13203;DHT22;6666;51.626;7.530;2024-03-07T15:28:55;8.70;99.90
13203;DHT22;6666;51.626;7.530;2024-03-07T15:31:24;8.70;99.90
13203;DHT22;6666;51.626;7.530;2024-03-07T15:33:52;8.80;99.90
13203;DHT22;6666;51.626;7.530;2024-03-07T15:36:21;8.80;99.90
13203;DHT22;6666;51.626;7.530;2024-03-07T15:38:50;9.00;99.90
13203;DHT22;6666;51.626;7.530;2024-03-07T15:41:18;9.10;99.90
13203;DHT22;6666;51.626;7.530;2024-03-07T15:43:48;9.10;99.90
13203;DHT22;6666;51.626;7.530;2024-03-07T15:46:16;8.90;99.90
13203;DHT22;6666;51.626;7.530;2024-03-07T15:48:45;8.90;99.90
13203;DHT22;6666;51.626;7.530;2024-03-07T15:51:16;8.90;99.90
13203;DHT22;6666;51.626;7.530;2024-03-07T15:53:47;8.80;99.90
13203;DHT22;6666;51.626;7.530;2024-03-07T15:56:15;8.90;99.90
13203;DHT22;6666;51.626;7.530;2024-03-07T15:58:44;8.80;99.90
13203;DHT22;6666;51.626;7.530;2024-03-07T16:01:14;8.80;99.90
13203;DHT22;6666;51.626;7.530;2024-03-07T16:03:43;8.70;99.90
13203;DHT22;6666;51.626;7.530;2024-03-07T16:06:13;8.70;99.90
13203;DHT22;6666;51.626;7.530;2024-03-07T16:08:44;8.60;99.90
13203;DHT22;6666;51.626;7.530;2024-03-07T16:11:12;8.60;99.90
13203;DHT22;6666;51.626;7.530;2024-03-07T16:13:42;8.60;99.90
13203;DHT22;6666;51.626;7.530;2024-03-07T16:16:11;8.50;99.90
13203;DHT22;6666;51.626;7.530;2024-03-07T16:18:41;8.40;99.90
13203;DHT22;6666;51.626;7.530;2024-03-07T16:21:10;8.40;99.90
13203;DHT22;6666;51.626;7.530;2024-03-07T16:23:38;8.40;99.90
13203;DHT22;6666;51.626;7.530;2024-03-07T16:26:08;8.30;99.90
13203;DHT22;6666;51.626;7.530;2024-03-07T16:28:36;8.30;99.90
13203;DHT22;6666;51.626;7.530;2024-03-07T16:31:04;8.30;99.90
13203;DHT22;6666;51.626;7.530;2024-03-07T16:33:36;8.30;99.90
13203;DHT22;6666;51.626;7.530;2024-03-07T16:36:06;8.30;99.90